Time;durP1;ratioP1;P1;durP2;ratioP2;P2;SDS_P1;SDS_P2;PMS_P1;PMS_P2;Temp;Humidity;BMP_temperature;BMP_pressure;BME280_temperature;BME280_humidity;BME280_pressure;Samples;Min_cycle;Max_cycle;Signal;HPM_P1;HPM_P2
2022/05/19 00:01:01;;;;;;;;;;;13.70;99.90;;;;;;4998398;28;19964;-74
2022/05/19 00:03:32;;;;;;;;;;;13.40;99.90;;;;;;5000096;28;19960;-75
2022/05/19 00:06:01;;;;;;;;;;;13.40;99.90;;;;;;5025009;28;19930;-74
2022/05/19 00:08:27;;;;;;;;;;;13.30;99.90;;;;;;5009670;28;19910;-74
2022/05/19 00:11:00;;;;;;;;;;;13.30;99.90;;;;;;5013483;28;19932;-74
2022/05/19 00:13:26;;;;;;;;;;;13.30;99.90;;;;;;4979503;28;19926;-75
2022/05/19 00:15:52;;;;;;;;;;;13.20;99.90;;;;;;4979702;28;20024;-75
2022/05/19 00:18:21;;;;;;;;;;;13.20;99.90;;;;;;4981006;28;20824;-75
2022/05/19 00:20:46;;;;;;;;;;;13.40;99.90;;;;;;4979616;28;19926;-75
2022/05/19 00:23:15;;;;;;;;;;;13.20;99.90;;;;;;4997025;28;19984;-75
2022/05/19 00:25:40;;;;;;;;;;;13.40;99.90;;;;;;4996702;28;19929;-75
2022/05/19 00:28:06;;;;;;;;;;;13.20;99.90;;;;;;4978864;28;20017;-75
2022/05/19 00:30:32;;;;;;;;;;;13.10;99.90;;;;;;4979476;28;20016;-75
2022/05/19 00:32:58;;;;;;;;;;;13.20;99.90;;;;;;4979944;28;20463;-75
2022/05/19 00:35:24;;;;;;;;;;;13.10;99.90;;;;;;4995861;28;20017;-75
2022/05/19 00:37:52;;;;;;;;;;;13.10;99.90;;;;;;4997918;28;20395;-76
2022/05/19 00:40:19;;;;;;;;;;;13.10;99.90;;;;;;4978743;28;20329;-75
2022/05/19 00:42:47;;;;;;;;;;;13.10;99.90;;;;;;4979232;28;19930;-75
2022/05/19 00:45:17;;;;;;;;;;;13.10;99.90;;;;;;4997421;28;19932;-74
2022/05/19 00:47:46;;;;;;;;;;;13.20;99.90;;;;;;4996819;28;19926;-74
2022/05/19 00:50:21;;;;;;;;;;;13.20;99.90;;;;;;4994957;28;19973;-75
2022/05/19 00:52:47;;;;;;;;;;;13.20;99.90;;;;;;4979460;28;19929;-75
2022/05/19 00:55:15;;;;;;;;;;;13.20;99.90;;;;;;4995645;28;19942;-75
2022/05/19 00:57:43;;;;;;;;;;;13.30;99.90;;;;;;4979328;28;19930;-75
2022/05/19 01:00:11;;;;;;;;;;;13.50;99.90;;;;;;4978860;28;20492;-75
2022/05/19 01:02:38;;;;;;;;;;;13.30;99.90;;;;;;4995064;28;19925;-75
2022/05/19 01:05:07;;;;;;;;;;;13.30;99.90;;;;;;4996094;28;19926;-76
2022/05/19 01:07:35;;;;;;;;;;;13.60;99.90;;;;;;4996340;28;19909;-75
2022/05/19 01:10:05;;;;;;;;;;;13.50;99.90;;;;;;4978146;28;20472;-76
2022/05/19 01:12:31;;;;;;;;;;;13.40;99.90;;;;;;4980084;28;20449;-76
2022/05/19 01:14:59;;;;;;;;;;;13.40;99.90;;;;;;4995604;28;19933;-76
2022/05/19 01:17:24;;;;;;;;;;;13.40;99.90;;;;;;4977447;28;19925;-76
2022/05/19 01:19:58;;;;;;;;;;;13.40;99.90;;;;;;4978536;28;19932;-75
2022/05/19 01:22:52;;;;;;;;;;;13.40;99.90;;;;;;4978706;28;20021;-76
2022/05/19 01:25:37;;;;;;;;;;;13.40;99.90;;;;;;4977263;28;19930;-76
2022/05/19 01:28:02;;;;;;;;;;;13.50;99.90;;;;;;4978069;28;19926;-76
2022/05/19 01:30:28;;;;;;;;;;;13.40;99.90;;;;;;4977416;28;20292;-76
2022/05/19 01:32:54;;;;;;;;;;;13.50;99.90;;;;;;4996066;28;19933;-76
2022/05/19 01:35:20;;;;;;;;;;;13.50;99.90;;;;;;4995529;28;19929;-76
2022/05/19 01:37:45;;;;;;;;;;;13.50;99.90;;;;;;4982084;28;19943;-76
2022/05/19 01:40:23;;;;;;;;;;;13.40;99.90;;;;;;4981235;28;19926;-76
2022/05/19 01:43:05;;;;;;;;;;;13.50;99.90;;;;;;4985982;28;20084;-76
2022/05/19 01:45:42;;;;;;;;;;;13.50;99.90;;;;;;4999612;28;19925;-75
2022/05/19 01:48:14;;;;;;;;;;;13.50;99.90;;;;;;5018629;28;20358;-75
2022/05/19 01:50:44;;;;;;;;;;;13.50;99.90;;;;;;4998928;28;20377;-75
2022/05/19 01:53:15;;;;;;;;;;;13.60;99.90;;;;;;5016494;28;19925;-75
2022/05/19 01:55:50;;;;;;;;;;;13.70;99.90;;;;;;5000259;28;19932;-75
2022/05/19 01:58:19;;;;;;;;;;;13.70;99.90;;;;;;4997878;28;19925;-76
2022/05/19 02:00:50;;;;;;;;;;;13.60;99.90;;;;;;5019595;28;19925;-76
2022/05/19 02:03:25;;;;;;;;;;;13.70;99.90;;;;;;5000804;28;20464;-75
2022/05/19 02:05:59;;;;;;;;;;;13.70;99.90;;;;;;4998968;28;20020;-76
2022/05/19 02:08:27;;;;;;;;;;;13.70;99.90;;;;;;5000263;28;20381;-76
2022/05/19 02:10:57;;;;;;;;;;;13.70;99.90;;;;;;5000146;28;19926;-76
2022/05/19 02:13:23;;;;;;;;;;;13.80;99.90;;;;;;5002310;28;19925;-76
2022/05/19 02:15:53;;;;;;;;;;;13.80;99.90;;;;;;5008016;28;20012;-76
2022/05/19 02:18:20;;;;;;;;;;;13.80;99.90;;;;;;4990006;28;19934;-76
2022/05/19 02:20:47;;;;;;;;;;;13.90;99.90;;;;;;4990170;28;19930;-76
2022/05/19 02:23:14;;;;;;;;;;;13.90;99.90;;;;;;4991753;28;19925;-76
2022/05/19 02:26:00;;;;;;;;;;;13.90;99.90;;;;;;4987807;28;19976;-76
2022/05/19 02:28:28;;;;;;;;;;;13.90;99.90;;;;;;5015936;28;19925;-76
2022/05/19 02:30:54;;;;;;;;;;;14.00;99.90;;;;;;5018121;28;19933;-76
2022/05/19 02:33:19;;;;;;;;;;;14.10;99.90;;;;;;5017254;28;19933;-76
2022/05/19 02:35:45;;;;;;;;;;;14.00;99.90;;;;;;4993936;28;19929;-76
2022/05/19 02:38:11;;;;;;;;;;;14.10;99.90;;;;;;4980258;28;20377;-76
2022/05/19 02:40:37;;;;;;;;;;;14.20;99.90;;;;;;4980836;28;19926;-76
2022/05/19 02:43:03;;;;;;;;;;;14.30;99.90;;;;;;4981477;28;19952;-76
2022/05/19 02:45:29;;;;;;;;;;;14.30;99.90;;;;;;4999194;28;19934;-76
2022/05/19 02:47:55;;;;;;;;;;;14.30;99.90;;;;;;5008709;28;20001;-76
2022/05/19 02:50:21;;;;;;;;;;;14.40;99.90;;;;;;4996700;28;19940;-76
2022/05/19 02:52:46;;;;;;;;;;;14.50;99.90;;;;;;4997946;28;19929;-76
2022/05/19 02:55:15;;;;;;;;;;;14.60;99.90;;;;;;4980596;28;20028;-76
2022/05/19 03:03:13;;;;;;;;;;;14.80;99.90;;;;;;3357931;26;19956;-76
2022/05/19 03:09:09;;;;;;;;;;;15.00;99.90;;;;;;5024275;28;20023;-76
2022/05/19 03:15:39;;;;;;;;;;;15.00;99.90;;;;;;4997615;28;19925;-77
2022/05/19 03:18:57;;;;;;;;;;;;;;;;;;;;;
2022/05/19 03:22:27;;;;;;;;;;;14.90;99.90;;;;;;5001043;28;19928;-76
2022/05/19 03:25:05;;;;;;;;;;;15.10;99.90;;;;;;4996818;28;19925;-76
2022/05/19 03:27:47;;;;;;;;;;;15.70;99.90;;;;;;5016093;28;19926;-76
2022/05/19 03:30:22;;;;;;;;;;;15.10;99.90;;;;;;5014524;28;19925;-76
2022/05/19 03:33:06;;;;;;;;;;;15.10;99.90;;;;;;5015066;28;19930;-76
2022/05/19 03:35:45;;;;;;;;;;;15.10;99.90;;;;;;5025296;28;19925;-75
2022/05/19 03:38:20;;;;;;;;;;;15.00;99.90;;;;;;5016298;28;20426;-76
2022/05/19 03:40:52;;;;;;;;;;;15.20;99.90;;;;;;5018186;28;19929;-76
2022/05/19 03:43:17;;;;;;;;;;;15.20;99.90;;;;;;5017860;28;19929;-76
2022/05/19 03:45:46;;;;;;;;;;;15.20;99.90;;;;;;5036332;28;20343;-76
2022/05/19 03:48:11;;;;;;;;;;;15.20;99.90;;;;;;5018717;28;20023;-75
2022/05/19 03:51:18;;;;;;;;;;;15.30;99.90;;;;;;5018582;28;19964;-76
2022/05/19 03:53:53;;;;;;;;;;;15.30;99.90;;;;;;5035680;28;19925;-76
2022/05/19 03:56:20;;;;;;;;;;;14.70;99.90;;;;;;5017127;28;19932;-76
2022/05/19 03:58:46;;;;;;;;;;;15.30;99.90;;;;;;5017950;28;20728;-76
2022/05/19 04:01:12;;;;;;;;;;;15.40;99.90;;;;;;5017666;28;19929;-76
2022/05/19 04:03:41;;;;;;;;;;;15.50;99.90;;;;;;5020067;28;19925;-76
2022/05/19 04:06:10;;;;;;;;;;;15.50;99.90;;;;;;4992494;28;19925;-76
2022/05/19 04:08:36;;;;;;;;;;;15.50;99.90;;;;;;4997091;28;19925;-76
2022/05/19 04:11:02;;;;;;;;;;;15.60;99.90;;;;;;4996139;28;19926;-76
2022/05/19 04:13:27;;;;;;;;;;;16.00;99.90;;;;;;4994709;28;19930;-76
2022/05/19 04:15:53;;;;;;;;;;;15.70;99.90;;;;;;4996220;28;19932;-76
2022/05/19 04:18:19;;;;;;;;;;;15.70;99.90;;;;;;4994265;28;19933;-76
2022/05/19 04:20:44;;;;;;;;;;;15.80;99.90;;;;;;5000516;28;19929;-77
2022/05/19 04:23:10;;;;;;;;;;;15.80;99.90;;;;;;5015873;28;19932;-76
2022/05/19 04:25:36;;;;;;;;;;;15.80;99.90;;;;;;5002249;28;20012;-76
2022/05/19 04:28:02;;;;;;;;;;;15.90;99.90;;;;;;4994860;28;19925;-76
2022/05/19 04:30:27;;;;;;;;;;;15.90;99.90;;;;;;5011903;28;20427;-76
2022/05/19 04:32:53;;;;;;;;;;;16.00;99.90;;;;;;5005694;28;19925;-76
2022/05/19 04:35:19;;;;;;;;;;;16.10;99.90;;;;;;5004121;28;19933;-76
2022/05/19 04:37:45;;;;;;;;;;;16.40;99.90;;;;;;4987803;28;19956;-76
2022/05/19 04:40:11;;;;;;;;;;;16.50;99.90;;;;;;4987792;28;20019;-76
2022/05/19 04:42:37;;;;;;;;;;;16.50;99.90;;;;;;4986231;28;19926;-76
2022/05/19 04:45:04;;;;;;;;;;;16.50;99.90;;;;;;4978246;28;19925;-76
2022/05/19 04:47:29;;;;;;;;;;;16.50;99.90;;;;;;4995877;28;19997;-76
2022/05/19 04:49:55;;;;;;;;;;;16.50;99.90;;;;;;5001180;28;19969;-76
2022/05/19 04:52:20;;;;;;;;;;;16.40;99.90;;;;;;4987158;28;20348;-75
2022/05/19 04:54:46;;;;;;;;;;;16.30;99.90;;;;;;4986284;28;19937;-76
2022/05/19 04:57:11;;;;;;;;;;;16.30;99.90;;;;;;5005129;28;20271;-76
2022/05/19 04:59:38;;;;;;;;;;;16.20;99.90;;;;;;4982309;28;19933;-73
2022/05/19 05:02:04;;;;;;;;;;;16.10;99.90;;;;;;5010610;28;19938;-71
2022/05/19 05:04:30;;;;;;;;;;;16.10;99.90;;;;;;5003901;28;19926;-72
2022/05/19 05:06:56;;;;;;;;;;;16.10;99.90;;;;;;5009419;28;19932;-70
2022/05/19 05:09:22;;;;;;;;;;;16.10;99.90;;;;;;5014599;28;20281;-73
2022/05/19 05:11:47;;;;;;;;;;;16.10;99.90;;;;;;4996934;28;19992;-74
2022/05/19 05:14:14;;;;;;;;;;;16.10;99.90;;;;;;5006702;28;19930;-74
2022/05/19 05:16:39;;;;;;;;;;;16.10;99.90;;;;;;4985692;28;19937;-76
2022/05/19 05:19:05;;;;;;;;;;;16.10;99.90;;;;;;4994946;28;20017;-75
2022/05/19 05:21:31;;;;;;;;;;;16.10;99.90;;;;;;4993651;28;19933;-73
2022/05/19 05:23:56;;;;;;;;;;;16.10;99.90;;;;;;4977003;28;19929;-73
2022/05/19 05:26:22;;;;;;;;;;;16.20;99.90;;;;;;4979073;28;19934;-76
2022/05/19 05:28:48;;;;;;;;;;;16.30;99.90;;;;;;4995573;28;19926;-78
2022/05/19 05:31:13;;;;;;;;;;;16.20;99.90;;;;;;5004853;28;19955;-77
2022/05/19 05:33:39;;;;;;;;;;;16.40;99.90;;;;;;5001750;28;19929;-73
2022/05/19 05:36:04;;;;;;;;;;;16.30;99.90;;;;;;5015672;28;19932;-85
2022/05/19 05:38:30;;;;;;;;;;;16.40;99.90;;;;;;5013096;28;19933;-77
2022/05/19 05:40:56;;;;;;;;;;;16.40;99.90;;;;;;4995722;28;20020;-71
2022/05/19 05:43:21;;;;;;;;;;;16.50;99.90;;;;;;5013844;28;20006;-74
2022/05/19 05:45:52;;;;;;;;;;;16.70;99.90;;;;;;5010752;28;19933;-77
2022/05/19 05:48:27;;;;;;;;;;;16.60;99.90;;;;;;4994458;28;19926;-69
2022/05/19 05:50:52;;;;;;;;;;;16.70;99.90;;;;;;5004213;28;19932;-70
2022/05/19 05:53:18;;;;;;;;;;;16.70;99.90;;;;;;5012306;28;19930;-71
2022/05/19 05:55:43;;;;;;;;;;;16.80;99.90;;;;;;5010951;28;19928;-69
2022/05/19 05:58:09;;;;;;;;;;;16.80;99.90;;;;;;5009174;28;19930;-69
2022/05/19 06:00:35;;;;;;;;;;;16.80;99.90;;;;;;5011923;28;20389;-69
2022/05/19 06:03:01;;;;;;;;;;;16.90;99.90;;;;;;5009361;28;20032;-69
2022/05/19 06:05:26;;;;;;;;;;;16.80;99.90;;;;;;5010074;28;19929;-69
2022/05/19 06:07:52;;;;;;;;;;;16.80;99.90;;;;;;5003185;28;19961;-68
2022/05/19 06:10:18;;;;;;;;;;;16.60;99.90;;;;;;4994877;28;20373;-69
2022/05/19 06:12:43;;;;;;;;;;;16.90;99.90;;;;;;5007702;28;19971;-69
2022/05/19 06:15:11;;;;;;;;;;;16.90;99.90;;;;;;5004606;28;19926;-69
2022/05/19 06:17:39;;;;;;;;;;;16.80;99.90;;;;;;5011750;28;20020;-69
2022/05/19 06:20:05;;;;;;;;;;;16.90;99.90;;;;;;5011255;28;19926;-69
2022/05/19 06:22:30;;;;;;;;;;;16.90;99.90;;;;;;4992789;28;19930;-69
2022/05/19 06:24:58;;;;;;;;;;;16.90;99.90;;;;;;4997940;28;20300;-69
2022/05/19 06:27:24;;;;;;;;;;;16.90;99.90;;;;;;4994637;28;19922;-70
2022/05/19 06:29:49;;;;;;;;;;;16.90;99.90;;;;;;4995907;28;19932;-70
2022/05/19 06:32:18;;;;;;;;;;;16.90;99.90;;;;;;4996801;28;19952;-71
2022/05/19 06:34:43;;;;;;;;;;;16.90;99.90;;;;;;4992767;28;19941;-70
2022/05/19 06:37:09;;;;;;;;;;;17.20;99.90;;;;;;4980985;28;19925;-69
2022/05/19 06:39:34;;;;;;;;;;;16.90;99.90;;;;;;4997324;28;19996;-69
2022/05/19 06:42:00;;;;;;;;;;;16.80;99.90;;;;;;4995118;28;19997;-69
2022/05/19 06:44:33;;;;;;;;;;;16.80;99.90;;;;;;4992251;28;20290;-69
2022/05/19 06:46:59;;;;;;;;;;;16.80;99.90;;;;;;5015593;28;19936;-69
2022/05/19 06:49:25;;;;;;;;;;;16.90;99.90;;;;;;5000583;28;20298;-70
2022/05/19 06:51:51;;;;;;;;;;;16.90;99.90;;;;;;4990526;28;20389;-70
2022/05/19 06:54:17;;;;;;;;;;;17.00;99.90;;;;;;5002078;28;19926;-70
2022/05/19 06:56:42;;;;;;;;;;;17.00;99.90;;;;;;4978872;28;19933;-70
2022/05/19 06:59:08;;;;;;;;;;;17.10;99.90;;;;;;4994291;28;20016;-70
2022/05/19 07:01:33;;;;;;;;;;;17.10;99.90;;;;;;4978397;28;19926;-70
2022/05/19 07:03:59;;;;;;;;;;;17.00;99.90;;;;;;5013011;28;19981;-69
2022/05/19 07:06:28;;;;;;;;;;;17.10;99.90;;;;;;5004484;28;20373;-70
2022/05/19 07:08:54;;;;;;;;;;;17.10;99.90;;;;;;5003524;28;20261;-70
2022/05/19 07:11:28;;;;;;;;;;;17.20;99.90;;;;;;5014215;28;19925;-70
2022/05/19 07:14:04;;;;;;;;;;;17.30;99.90;;;;;;4993514;28;19973;-69
2022/05/19 07:16:30;;;;;;;;;;;17.30;99.90;;;;;;5033172;28;19995;-70
2022/05/19 07:20:43;;;;;;;;;;;17.50;99.90;;;;;;5035554;28;20372;-70
2022/05/19 07:21:45;;;;;;;;;;;17.40;99.90;;;;;;5035105;28;19925;-70
2022/05/19 07:24:15;;;;;;;;;;;17.50;99.90;;;;;;5035157;28;19929;-70
2022/05/19 07:26:44;;;;;;;;;;;17.60;99.90;;;;;;5026660;28;20384;-70
2022/05/19 07:29:10;;;;;;;;;;;17.70;99.90;;;;;;5014947;28;20373;-70
2022/05/19 07:31:36;;;;;;;;;;;17.80;99.90;;;;;;4997526;28;19925;-70
2022/05/19 07:34:03;;;;;;;;;;;17.80;99.90;;;;;;5013781;28;19925;-70
2022/05/19 07:36:28;;;;;;;;;;;17.80;99.90;;;;;;5013706;28;20016;-70
2022/05/19 07:38:56;;;;;;;;;;;17.90;99.90;;;;;;5014322;28;19995;-69
2022/05/19 07:41:22;;;;;;;;;;;17.90;99.90;;;;;;5013150;28;19926;-69
2022/05/19 07:43:47;;;;;;;;;;;17.90;99.90;;;;;;5014620;28;20292;-69
2022/05/19 07:46:13;;;;;;;;;;;17.90;99.90;;;;;;4997016;28;19925;-69
2022/05/19 07:48:39;;;;;;;;;;;17.90;99.90;;;;;;4995445;28;20399;-70
2022/05/19 07:51:04;;;;;;;;;;;18.00;99.90;;;;;;5013992;28;19932;-70
2022/05/19 07:53:30;;;;;;;;;;;18.00;99.90;;;;;;5014165;28;20023;-70
2022/05/19 07:55:59;;;;;;;;;;;18.00;99.90;;;;;;5014370;28;19980;-70
2022/05/19 07:58:24;;;;;;;;;;;18.00;99.90;;;;;;5012384;28;20012;-70
2022/05/19 08:00:51;;;;;;;;;;;18.10;99.90;;;;;;4998458;28;20064;-70
2022/05/19 08:03:21;;;;;;;;;;;18.20;99.90;;;;;;5006597;28;19933;-70
2022/05/19 08:05:46;;;;;;;;;;;18.30;99.90;;;;;;4984165;28;19937;-70
2022/05/19 08:08:18;;;;;;;;;;;18.30;99.90;;;;;;5013939;28;19926;-70
2022/05/19 08:10:44;;;;;;;;;;;18.40;99.90;;;;;;5000967;28;20015;-70
2022/05/19 08:15:54;;;;;;;;;;;18.50;99.90;;;;;;4994149;28;20480;-70
2022/05/19 08:18:23;;;;;;;;;;;18.70;99.90;;;;;;4994715;28;20690;-70
2022/05/19 08:20:51;;;;;;;;;;;18.80;99.90;;;;;;5005956;28;20429;-70
2022/05/19 08:23:18;;;;;;;;;;;18.70;99.90;;;;;;5013297;28;19932;-70
2022/05/19 08:25:44;;;;;;;;;;;18.60;99.90;;;;;;4995751;28;19925;-70
2022/05/19 08:28:14;;;;;;;;;;;18.70;99.90;;;;;;5013465;28;19932;-70
2022/05/19 08:30:41;;;;;;;;;;;18.70;99.90;;;;;;4996630;28;19929;-70
2022/05/19 08:33:06;;;;;;;;;;;18.80;99.90;;;;;;4992208;28;19965;-70
2022/05/19 08:35:32;;;;;;;;;;;18.80;99.90;;;;;;4996609;28;19964;-70
2022/05/19 08:37:58;;;;;;;;;;;18.90;99.90;;;;;;5014164;28;19925;-71
2022/05/19 08:40:23;;;;;;;;;;;19.00;99.90;;;;;;4995829;28;19925;-70
2022/05/19 08:42:52;;;;;;;;;;;19.00;99.90;;;;;;4994382;28;19937;-70
2022/05/19 08:45:24;;;;;;;;;;;19.00;99.90;;;;;;4994990;28;19971;-69
2022/05/19 08:47:53;;;;;;;;;;;19.20;99.90;;;;;;5003688;28;19964;-70
2022/05/19 08:50:36;;;;;;;;;;;19.10;99.90;;;;;;4993144;28;20382;-70
2022/05/19 08:53:06;;;;;;;;;;;19.20;99.90;;;;;;4997378;28;19932;-70
2022/05/19 08:55:32;;;;;;;;;;;19.40;99.90;;;;;;4992779;28;19922;-70
2022/05/19 08:58:13;;;;;;;;;;;19.70;99.90;;;;;;4977107;28;19983;-70
2022/05/19 09:00:46;;;;;;;;;;;19.90;99.90;;;;;;5004597;28;19981;-70
2022/05/19 09:03:34;;;;;;;;;;;20.00;99.90;;;;;;5017606;28;19926;-70
2022/05/19 09:06:20;;;;;;;;;;;20.10;99.90;;;;;;5015639;28;19979;-70
2022/05/19 09:08:48;;;;;;;;;;;20.10;99.90;;;;;;5033240;28;19933;-70
2022/05/19 09:11:21;;;;;;;;;;;20.10;99.90;;;;;;5033137;28;20384;-69
2022/05/19 09:14:05;;;;;;;;;;;20.30;99.90;;;;;;5033143;28;20012;-69
2022/05/19 09:16:35;;;;;;;;;;;20.30;99.90;;;;;;5032906;28;19925;-69
2022/05/19 09:19:06;;;;;;;;;;;20.20;99.90;;;;;;5032941;28;19933;-70
2022/05/19 09:21:33;;;;;;;;;;;20.30;99.90;;;;;;5032949;28;19924;-70
2022/05/19 09:23:59;;;;;;;;;;;20.60;99.90;;;;;;5032848;28;20315;-70
2022/05/19 09:26:33;;;;;;;;;;;20.80;99.90;;;;;;5015711;28;19921;-70
2022/05/19 09:29:03;;;;;;;;;;;21.00;99.90;;;;;;5015590;28;19951;-70
2022/05/19 09:31:32;;;;;;;;;;;20.80;99.90;;;;;;5032834;28;19951;-70
2022/05/19 09:33:58;;;;;;;;;;;20.80;99.90;;;;;;5031809;28;19922;-70
2022/05/19 09:36:24;;;;;;;;;;;20.90;99.90;;;;;;5032313;28;19925;-70
2022/05/19 09:38:58;;;;;;;;;;;21.10;99.90;;;;;;5032813;28;19933;-71
2022/05/19 09:41:36;;;;;;;;;;;21.80;99.90;;;;;;5014295;28;19925;-70
2022/05/19 09:44:03;;;;;;;;;;;21.10;99.90;;;;;;5012644;28;19926;-71
2022/05/19 09:46:50;;;;;;;;;;;20.90;99.90;;;;;;5032490;28;19929;-71
2022/05/19 09:49:26;;;;;;;;;;;21.10;99.90;;;;;;5015377;28;19932;-71
2022/05/19 09:51:52;;;;;;;;;;;21.00;99.90;;;;;;5033007;28;20434;-71
2022/05/19 09:54:18;;;;;;;;;;;21.00;99.90;;;;;;5014566;28;20024;-70
2022/05/19 09:56:45;;;;;;;;;;;21.40;99.90;;;;;;5016105;28;19925;-69
2022/05/19 09:59:16;;;;;;;;;;;22.10;99.90;;;;;;5017947;28;20374;-70
2022/05/19 10:01:45;;;;;;;;;;;22.70;99.90;;;;;;5018610;28;20416;-70
2022/05/19 10:04:32;;;;;;;;;;;22.70;99.90;;;;;;4999263;28;20308;-70
2022/05/19 10:07:05;;;;;;;;;;;22.80;99.90;;;;;;5016594;28;20040;-70
2022/05/19 10:09:32;;;;;;;;;;;22.40;99.90;;;;;;4999160;28;19925;-70
2022/05/19 10:12:09;;;;;;;;;;;22.80;99.90;;;;;;5016165;28;20289;-70
2022/05/19 10:14:35;;;;;;;;;;;23.50;99.90;;;;;;5016296;28;19984;-70
2022/05/19 10:17:21;;;;;;;;;;;23.90;99.90;;;;;;4999242;28;19929;-71
2022/05/19 10:19:52;;;;;;;;;;;24.20;99.90;;;;;;5016121;28;19959;-70
2022/05/19 10:22:21;;;;;;;;;;;24.90;99.90;;;;;;5023912;28;19933;-69
2022/05/19 10:24:53;;;;;;;;;;;25.20;99.90;;;;;;4998007;28;20401;-71
2022/05/19 10:33:06;;;;;;;;;;;25.20;99.90;;;;;;5022870;28;20399;-69
2022/05/19 10:35:44;;;;;;;;;;;25.30;99.90;;;;;;5022604;28;20273;-68
2022/05/19 10:38:42;;;;;;;;;;;25.20;99.90;;;;;;5014962;28;20024;-69
2022/05/19 10:41:31;;;;;;;;;;;25.00;99.90;;;;;;5010478;28;19926;-74
2022/05/19 10:44:06;;;;;;;;;;;25.00;99.90;;;;;;4999219;28;19932;-71
2022/05/19 10:46:54;;;;;;;;;;;25.20;99.90;;;;;;5016291;28;20279;-74
2022/05/19 10:49:26;;;;;;;;;;;25.00;99.90;;;;;;5020850;28;19931;-71
2022/05/19 10:51:52;;;;;;;;;;;24.70;99.90;;;;;;5018654;28;19925;-71
2022/05/19 10:54:20;;;;;;;;;;;25.00;99.90;;;;;;5008294;28;19931;-76
2022/05/19 10:56:55;;;;;;;;;;;25.00;99.90;;;;;;4999052;28;19934;-71
2022/05/19 10:59:36;;;;;;;;;;;25.70;99.90;;;;;;5016632;28;19979;-74
2022/05/19 11:02:13;;;;;;;;;;;26.00;99.90;;;;;;5016864;28;19926;-74
2022/05/19 11:04:54;;;;;;;;;;;26.50;99.90;;;;;;5020513;28;19948;-72
2022/05/19 11:07:29;;;;;;;;;;;27.00;99.90;;;;;;5016057;28;20353;-73
2022/05/19 11:10:00;;;;;;;;;;;27.50;99.90;;;;;;5016286;28;19926;-73
2022/05/19 11:12:38;;;;;;;;;;;27.40;99.60;;;;;;5015660;28;20432;-72
2022/05/19 11:15:14;;;;;;;;;;;27.00;99.90;;;;;;5014736;28;19925;-73
2022/05/19 11:18:00;;;;;;;;;;;26.50;99.90;;;;;;5227090;23;19932;-72
2022/05/19 11:20:38;;;;;;;;;;;26.20;99.90;;;;;;5004474;28;20451;-72
2022/05/19 11:23:18;;;;;;;;;;;25.60;99.90;;;;;;5016048;28;19926;-75
2022/05/19 11:28:38;;;;;;;;;;;24.70;99.90;;;;;;5015934;28;19925;-71
2022/05/19 11:31:26;;;;;;;;;;;24.30;99.90;;;;;;5012547;28;19925;-72
2022/05/19 11:33:54;;;;;;;;;;;24.10;99.90;;;;;;4971681;28;19925;-72
2022/05/19 11:36:24;;;;;;;;;;;23.80;99.90;;;;;;5015373;28;19929;-73
2022/05/19 11:38:53;;;;;;;;;;;23.60;99.90;;;;;;5015865;28;19921;-72
2022/05/19 11:41:28;;;;;;;;;;;23.40;99.90;;;;;;5013826;28;20472;-72
2022/05/19 11:43:57;;;;;;;;;;;23.30;99.90;;;;;;4996124;28;19976;-72
2022/05/19 11:46:25;;;;;;;;;;;23.00;99.90;;;;;;4979432;28;19952;-73
2022/05/19 11:57:17;;;;;;;;;;;21.70;99.90;;;;;;5008478;28;19955;-70
2022/05/19 11:59:50;;;;;;;;;;;21.30;99.90;;;;;;5003195;28;19926;-71
2022/05/19 12:02:19;;;;;;;;;;;21.10;99.90;;;;;;5008675;28;19926;-71
2022/05/19 12:04:47;;;;;;;;;;;20.90;99.90;;;;;;4995742;28;19925;-71
2022/05/19 12:07:22;;;;;;;;;;;20.80;99.90;;;;;;4997934;28;19926;-71
2022/05/19 12:09:49;;;;;;;;;;;20.70;99.90;;;;;;4995008;28;19925;-70
2022/05/19 12:12:24;;;;;;;;;;;20.50;99.90;;;;;;5012263;28;20016;-70
2022/05/19 12:15:02;;;;;;;;;;;20.50;99.90;;;;;;4995773;28;19969;-70
2022/05/19 12:17:32;;;;;;;;;;;20.40;99.90;;;;;;4995096;28;20040;-70
2022/05/19 12:20:02;;;;;;;;;;;20.10;99.90;;;;;;5013349;28;19953;-70
2022/05/19 12:22:41;;;;;;;;;;;20.00;99.90;;;;;;5012755;28;19930;-70
2022/05/19 12:25:12;;;;;;;;;;;19.80;99.90;;;;;;4995513;28;20348;-69
2022/05/19 12:27:37;;;;;;;;;;;19.80;99.90;;;;;;5018076;28;19925;-70
2022/05/19 12:33:09;;;;;;;;;;;19.40;99.90;;;;;;4994701;28;19929;-70
2022/05/19 12:35:38;;;;;;;;;;;19.20;99.90;;;;;;4994161;28;19976;-70
2022/05/19 12:38:06;;;;;;;;;;;19.10;99.90;;;;;;4998700;28;19961;-71
2022/05/19 12:40:52;;;;;;;;;;;19.10;99.90;;;;;;4995432;28;20424;-70
2022/05/19 12:43:19;;;;;;;;;;;19.10;99.90;;;;;;5013099;28;20288;-70
2022/05/19 12:45:48;;;;;;;;;;;19.20;99.90;;;;;;5013617;28;20297;-71
2022/05/19 12:48:14;;;;;;;;;;;19.10;99.90;;;;;;4995510;28;19925;-69
2022/05/19 12:50:42;;;;;;;;;;;19.10;99.90;;;;;;4994081;28;19955;-70
2022/05/19 12:53:13;;;;;;;;;;;19.10;99.90;;;;;;4993481;28;19925;-71
2022/05/19 12:55:39;;;;;;;;;;;19.00;99.90;;;;;;4994288;28;19937;-69
2022/05/19 12:58:23;;;;;;;;;;;19.00;99.90;;;;;;4975610;28;19925;-69
2022/05/19 13:00:49;;;;;;;;;;;19.00;99.90;;;;;;4976885;28;19925;-72
2022/05/19 13:03:16;;;;;;;;;;;18.90;99.90;;;;;;4994779;28;20020;-70
2022/05/19 13:05:46;;;;;;;;;;;18.90;99.90;;;;;;4994549;28;19936;-72
2022/05/19 13:08:13;;;;;;;;;;;18.80;99.90;;;;;;4993677;28;19930;-71
2022/05/19 13:10:47;;;;;;;;;;;18.80;99.90;;;;;;4994272;28;19926;-71
2022/05/19 13:13:29;;;;;;;;;;;18.70;99.90;;;;;;4994338;28;19969;-72
2022/05/19 13:15:57;;;;;;;;;;;18.70;99.90;;;;;;4984799;28;19937;-73
2022/05/19 13:18:26;;;;;;;;;;;18.60;99.90;;;;;;4995653;28;20624;-71
2022/05/19 13:21:01;;;;;;;;;;;18.60;99.90;;;;;;4993024;28;19973;-71
2022/05/19 13:23:30;;;;;;;;;;;18.50;99.90;;;;;;4992652;28;20419;-70
2022/05/19 13:26:01;;;;;;;;;;;18.60;99.90;;;;;;4993432;28;19926;-71
2022/05/19 13:31:22;;;;;;;;;;;18.60;99.90;;;;;;4974988;28;19926;-71
2022/05/19 13:33:49;;;;;;;;;;;18.60;99.90;;;;;;4997119;28;19933;-71
2022/05/19 13:36:25;;;;;;;;;;;18.50;99.90;;;;;;4979006;28;19933;-71
2022/05/19 13:39:11;;;;;;;;;;;18.50;99.90;;;;;;4978317;28;19933;-71
2022/05/19 13:41:47;;;;;;;;;;;18.40;99.90;;;;;;4996893;28;19930;-71
2022/05/19 13:44:14;;;;;;;;;;;18.40;99.90;;;;;;4996294;28;19933;-70
2022/05/19 13:46:40;;;;;;;;;;;18.30;99.90;;;;;;4996696;28;19926;-70
2022/05/19 13:49:07;;;;;;;;;;;18.30;99.90;;;;;;4986756;28;19933;-70
2022/05/19 13:51:32;;;;;;;;;;;18.30;99.90;;;;;;4959886;28;20337;-71
2022/05/19 13:53:59;;;;;;;;;;;18.20;99.90;;;;;;4977512;28;19926;-71
2022/05/19 13:56:36;;;;;;;;;;;18.20;99.90;;;;;;4960354;28;19926;-71
2022/05/19 13:59:02;;;;;;;;;;;18.30;99.90;;;;;;4977833;28;19934;-72
2022/05/19 14:01:29;;;;;;;;;;;18.20;99.90;;;;;;4978492;28;19933;-71
2022/05/19 14:03:56;;;;;;;;;;;18.60;99.90;;;;;;4960922;28;19926;-72
2022/05/19 14:06:23;;;;;;;;;;;18.10;99.90;;;;;;4976762;28;19926;-71
2022/05/19 14:08:49;;;;;;;;;;;18.50;99.90;;;;;;4994424;28;19933;-68
2022/05/19 14:11:18;;;;;;;;;;;18.10;99.90;;;;;;4995519;28;19925;-68
2022/05/19 14:13:44;;;;;;;;;;;18.10;99.90;;;;;;4995618;28;20366;-67
2022/05/19 14:16:16;;;;;;;;;;;18.10;99.90;;;;;;4995627;28;19926;-67
2022/05/19 14:18:46;;;;;;;;;;;18.10;99.90;;;;;;4996999;28;20012;-67
2022/05/19 14:21:11;;;;;;;;;;;18.10;99.90;;;;;;5012611;28;20393;-68
2022/05/19 14:23:37;;;;;;;;;;;18.20;99.90;;;;;;5015437;28;20000;-68
2022/05/19 14:26:05;;;;;;;;;;;18.10;99.90;;;;;;5013898;28;20266;-68
2022/05/19 14:28:35;;;;;;;;;;;18.30;99.90;;;;;;5015039;28;19969;-67
2022/05/19 14:31:08;;;;;;;;;;;18.30;99.90;;;;;;5014558;28;20236;-68
2022/05/19 14:33:41;;;;;;;;;;;18.40;99.90;;;;;;5015421;28;20361;-69
2022/05/19 14:36:11;;;;;;;;;;;18.60;99.90;;;;;;4996319;28;19925;-69
2022/05/19 14:38:47;;;;;;;;;;;19.10;99.90;;;;;;5014770;28;20038;-68
2022/05/19 14:44:03;;;;;;;;;;;19.10;99.90;;;;;;4996449;28;19926;-67
2022/05/19 14:46:37;;;;;;;;;;;19.30;99.90;;;;;;4996360;28;19932;-73
2022/05/19 14:49:05;;;;;;;;;;;19.40;99.90;;;;;;5014764;28;20301;-69
2022/05/19 14:51:33;;;;;;;;;;;19.80;99.90;;;;;;4995195;28;19925;-68
2022/05/19 14:53:59;;;;;;;;;;;20.10;99.90;;;;;;4996542;28;19925;-67
2022/05/19 14:56:33;;;;;;;;;;;20.30;99.90;;;;;;5014717;28;19926;-68
2022/05/19 14:59:14;;;;;;;;;;;20.60;99.90;;;;;;5014613;28;19934;-68
2022/05/19 15:01:40;;;;;;;;;;;20.90;99.90;;;;;;5006963;28;19933;-68
2022/05/19 15:04:10;;;;;;;;;;;21.30;99.90;;;;;;4977232;28;19926;-68
2022/05/19 15:06:35;;;;;;;;;;;21.90;99.90;;;;;;4977024;28;19932;-68
2022/05/19 15:09:01;;;;;;;;;;;21.90;99.90;;;;;;4978068;28;19925;-68
2022/05/19 15:11:27;;;;;;;;;;;22.00;99.90;;;;;;5012658;28;20296;-67
2022/05/19 15:13:54;;;;;;;;;;;22.30;99.90;;;;;;5016152;28;19932;-68
2022/05/19 15:16:21;;;;;;;;;;;22.60;99.90;;;;;;5033739;28;19925;-70